Time;durP1;ratioP1;P1;durP2;ratioP2;P2;SDS_P1;SDS_P2;PMS_P1;PMS_P2;Temp;Humidity;BMP_temperature;BMP_pressure;BME280_temperature;BME280_humidity;BME280_pressure;Samples;Min_cycle;Max_cycle;Signal;HPM_P1;HPM_P2
2022/12/06 00:00:20;;;;;;;69.38;39.38;;;11.80;99.90;;;;;;5093348;28;20039;-68
2022/12/06 00:03:24;;;;;;;75.40;41.92;;;;;;;;;;5093206;28;20059;-69
2022/12/06 00:06:30;;;;;;;78.15;35.95;;;11.20;99.90;;;;;;5093304;28;20039;-69
2022/12/06 00:09:35;;;;;;;68.63;40.20;;;;;;;;;;5093093;28;20507;-69
2022/12/06 00:12:39;;;;;;;65.22;32.80;;;;;;;;;;5093555;28;20043;-69
2022/12/06 00:15:43;;;;;;;60.65;30.98;;;;;;;;;;5093159;28;20514;-69
2022/12/06 00:18:48;;;;;;;57.92;30.10;;;;;;;;;;5092919;28;20043;-69
2022/12/06 00:21:53;;;;;;;65.38;31.52;;;;;;;;;;5093231;28;20503;-68
2022/12/06 00:24:57;;;;;;;68.72;33.55;;;;;;;;;;5093067;28;20043;-69
2022/12/06 00:28:01;;;;;;;59.42;34.83;;;;;;;;;;5093029;28;20043;-69
2022/12/06 00:31:08;;;;;;;64.60;35.20;;;7.80;99.90;;;;;;5092803;28;20039;-68
2022/12/06 00:34:12;;;;;;;64.22;34.65;;;;;;;;;;5092636;28;20043;-69
2022/12/06 00:37:16;;;;;;;65.10;34.30;;;;;;;;;;5092737;28;20043;-69
2022/12/06 00:40:21;;;;;;;57.22;32.45;;;;;;;;;;5092291;28;20055;-68
2022/12/06 00:43:28;;;;;;;55.03;26.02;;;13.00;99.90;;;;;;5092374;28;20137;-69
2022/12/06 00:46:33;;;;;;;59.60;29.20;;;12.40;99.90;;;;;;5093019;28;20133;-69
2022/12/06 00:49:38;;;;;;;54.03;26.63;;;;;;;;;;5092666;28;20309;-69
2022/12/06 00:52:42;;;;;;;52.50;24.48;;;;;;;;;;5092223;28;20070;-69
2022/12/06 00:55:47;;;;;;;59.88;27.67;;;;;;;;;;5092267;28;20042;-69
2022/12/06 00:58:51;;;;;;;49.90;23.92;;;;;;;;;;5092112;28;20035;-69
2022/12/06 01:01:55;;;;;;;50.95;24.23;;;;;;;;;;5092503;28;20047;-69
2022/12/06 01:05:00;;;;;;;58.88;25.95;;;;;;;;;;5091427;28;20499;-69
2022/12/06 01:08:04;;;;;;;66.38;26.13;;;;;;;;;;5092024;28;20046;-69
2022/12/06 01:11:08;;;;;;;57.47;25.75;;;;;;;;;;5091915;28;20039;-68
2022/12/06 01:14:13;;;;;;;55.05;26.40;;;;;;;;;;5092226;28;20507;-68
2022/12/06 01:17:17;;;;;;;50.42;27.23;;;;;;;;;;5091996;28;20356;-68
2022/12/06 01:20:21;;;;;;;56.60;27.02;;;11.50;99.90;;;;;;5092531;28;20067;-68
2022/12/06 01:23:25;;;;;;;57.40;26.75;;;11.20;99.90;;;;;;5091659;28;20413;-68
2022/12/06 01:26:32;;;;;;;50.28;26.25;;;11.40;99.90;;;;;;5091669;28;20047;-68
2022/12/06 01:29:36;;;;;;;58.38;25.45;;;;;;;;;;5091511;28;20067;-68
2022/12/06 01:32:40;;;;;;;56.00;26.00;;;;;;;;;;5091642;28;20043;-67
2022/12/06 01:35:45;;;;;;;48.42;25.98;;;;;;;;;;5091526;28;20043;-68
2022/12/06 01:38:51;;;;;;;57.33;27.08;;;11.20;99.90;;;;;;5091671;28;20047;-69
2022/12/06 01:41:55;;;;;;;59.28;27.80;;;;;;;;;;5091226;28;20043;-69
2022/12/06 01:45:00;;;;;;;52.67;28.90;;;;;;;;;;5091668;28;20043;-69
2022/12/06 01:48:04;;;;;;;54.33;29.08;;;11.30;99.90;;;;;;5091529;28;20047;-69
2022/12/06 01:51:11;;;;;;;57.40;29.67;;;11.40;99.90;;;;;;5090540;28;20131;-69
2022/12/06 01:54:18;;;;;;;64.63;30.58;;;11.10;99.90;;;;;;5091259;28;20039;-69
2022/12/06 01:57:23;;;;;;;62.70;30.98;;;;;;;;;;5090444;28;20039;-69
2022/12/06 02:00:27;;;;;;;58.95;30.88;;;;;;;;;;5091515;28;20121;-69
2022/12/06 02:03:33;;;;;;;66.88;33.05;;;11.00;99.90;;;;;;5091090;28;20059;-69
2022/12/06 02:06:38;;;;;;;55.42;27.85;;;9.60;99.90;;;;;;5091164;28;20035;-69
2022/12/06 02:09:44;;;;;;;59.28;26.83;;;11.30;99.90;;;;;;5090864;28;20043;-69
2022/12/06 02:12:53;;;;;;;59.45;27.98;;;11.40;99.90;;;;;;5090963;28;20039;-69
2022/12/06 02:16:21;;;;;;;56.05;27.98;;;11.40;99.90;;;;;;5091289;28;20054;-69
2022/12/06 02:19:56;;;;;;;64.35;30.33;;;11.40;99.90;;;;;;5091112;28;20050;-69
2022/12/06 02:23:30;;;;;;;63.08;29.58;;;11.50;99.90;;;;;;5090594;28;20047;-69
2022/12/06 02:26:34;;;;;;;54.22;28.85;;;;;;;;;;5090920;28;20047;-69
2022/12/06 02:29:47;;;;;;;56.92;28.50;;;12.30;99.90;;;;;;5090938;28;20518;-69
2022/12/06 02:33:03;;;;;;;59.08;29.75;;;11.40;99.90;;;;;;5091189;28;20494;-69
2022/12/06 02:36:46;;;;;;;55.60;29.63;;;11.20;99.90;;;;;;5090805;28;20097;-68
2022/12/06 02:40:00;;;;;;;61.95;29.92;;;10.70;99.90;;;;;;5090952;28;20059;-68
2022/12/06 02:43:11;;;;;;;51.97;29.83;;;11.20;99.90;;;;;;5090803;28;20047;-68
2022/12/06 02:46:19;;;;;;;61.05;31.45;;;11.10;99.90;;;;;;5091094;28;20222;-69
2022/12/06 02:49:25;;;;;;;53.35;28.45;;;10.90;99.90;;;;;;5090886;28;20056;-69
2022/12/06 02:52:31;;;;;;;53.75;28.25;;;11.00;99.90;;;;;;5090554;28;20048;-69
2022/12/06 02:55:35;;;;;;;57.75;29.15;;;;;;;;;;5090660;28;20039;-69
2022/12/06 02:58:40;;;;;;;53.90;29.13;;;;;;;;;;5091202;28;20035;-69
2022/12/06 03:01:51;;;;;;;50.65;28.98;;;11.00;99.90;;;;;;5090554;28;20067;-69
2022/12/06 03:05:23;;;;;;;55.30;28.27;;;12.10;99.90;;;;;;5094560;28;20051;-69
2022/12/06 03:08:48;;;;;;;57.83;29.10;;;11.60;99.90;;;;;;5094558;28;20186;-69
2022/12/06 03:12:07;;;;;;;58.65;28.13;;;11.00;99.90;;;;;;5094339;28;20047;-69
2022/12/06 03:15:20;;;;;;;47.45;24.73;;;11.40;99.90;;;;;;5094603;28;20039;-69
2022/12/06 03:18:46;;;;;;;49.22;26.40;;;10.80;99.90;;;;;;5094635;28;20051;-69
2022/12/06 03:22:02;;;;;;;45.97;23.70;;;11.10;99.90;;;;;;5094309;28;20043;-69
2022/12/06 03:25:08;;;;;;;51.10;25.10;;;11.20;99.90;;;;;;5094397;28;20070;-69
2022/12/06 03:28:15;;;;;;;45.53;25.02;;;11.00;99.90;;;;;;5094288;28;20395;-69
2022/12/06 03:31:21;;;;;;;51.00;24.70;;;;;;;;;;5094548;28;20047;-69
2022/12/06 03:34:33;;;;;;;44.85;24.67;;;9.60;99.90;;;;;;5094451;28;20043;-67
2022/12/06 03:38:26;;;;;;;52.87;23.03;;;10.10;99.90;;;;;;5093646;28;20043;-68
2022/12/06 03:41:36;;;;;;;52.17;25.20;;;13.90;99.90;;;;;;5093975;28;20047;-69
2022/12/06 03:44:43;;;;;;;55.22;24.70;;;;;;;;;;5093782;28;20043;-69
2022/12/06 03:47:59;;;;;;;51.83;25.67;;;11.10;99.90;;;;;;5093613;28;20063;-68
2022/12/06 03:51:09;;;;;;;52.15;21.63;;;11.10;99.90;;;;;;5093373;28;20062;-67
2022/12/06 03:54:15;;;;;;;50.58;20.35;;;;;;;;;;5093619;28;20054;-68
2022/12/06 03:57:19;;;;;;;58.40;23.65;;;;;;;;;;5093620;28;20047;-68
2022/12/06 04:00:23;;;;;;;47.75;22.13;;;;;;;;;;5093698;28;20055;-68
2022/12/06 04:03:27;;;;;;;49.00;22.30;;;;;;;;;;5093432;28;20047;-69
2022/12/06 04:06:31;;;;;;;52.50;21.98;;;11.20;99.90;;;;;;5093344;28;20047;-70
2022/12/06 04:13:01;;;;;;;47.63;22.33;;;;;;;;;;5093082;28;20043;-68
2022/12/06 04:18:09;;;;;;;56.83;21.33;;;;;;;;;;5091469;28;20043;-68
2022/12/06 04:19:29;;;;;;;42.92;21.42;;;11.20;99.90;;;;;;5093041;28;20039;-68
2022/12/06 04:25:56;;;;;;;49.50;22.48;;;;;;;;;;5092888;28;20055;-69
2022/12/06 04:39:09;;;;;;;50.67;21.50;;;;;;;;;;5092614;28;20399;-69
2022/12/06 04:45:35;;;;;;;50.17;20.45;;;10.90;99.90;;;;;;5092429;28;20047;-68
2022/12/06 04:48:40;;;;;;;47.05;20.33;;;11.20;99.90;;;;;;5092483;28;20059;-68
2022/12/06 04:51:45;;;;;;;44.72;21.10;;;;;;;;;;5092258;28;20062;-68
2022/12/06 04:54:58;;;;;;;55.72;22.23;;;;;;;;;;5092402;28;20039;-68
2022/12/06 04:58:02;;;;;;;41.33;20.02;;;;;;;;;;5093213;28;20047;-68
2022/12/06 05:01:07;;;;;;;50.13;22.42;;;;;;;;;;5092384;28;20387;-70
2022/12/06 05:04:11;;;;;;;42.60;21.80;;;;;;;;;;5092174;28;20510;-69
2022/12/06 05:07:15;;;;;;;44.83;21.05;;;;;;;;;;5092478;28;20039;-69
2022/12/06 05:10:19;;;;;;;48.05;20.98;;;;;;;;;;5092233;28;20515;-69
2022/12/06 05:13:24;;;;;;;42.00;21.88;;;10.70;99.90;;;;;;5091201;28;20046;-68
2022/12/06 05:16:28;;;;;;;48.53;23.55;;;;;;;;;;5092179;28;20046;-69
2022/12/06 05:19:33;;;;;;;56.45;24.02;;;8.60;99.90;;;;;;5092109;28;20050;-69
2022/12/06 05:22:36;;;;;;;41.33;21.17;;;10.90;99.90;;;;;;5092031;28;20051;-69
2022/12/06 05:25:41;;;;;;;46.10;21.60;;;;;;;;;;5091232;28;20387;-68
2022/12/06 05:28:45;;;;;;;55.78;22.42;;;10.90;99.90;;;;;;5090644;28;20051;-68
2022/12/06 05:31:50;;;;;;;38.47;20.00;;;;;;;;;;5091735;28;20043;-68
2022/12/06 05:34:54;;;;;;;50.05;20.98;;;11.10;99.90;;;;;;5091629;28;20518;-67
2022/12/06 05:37:58;;;;;;;45.92;22.83;;;10.80;99.90;;;;;;5091512;28;20051;-68
2022/12/06 05:41:03;;;;;;;57.63;21.42;;;10.80;99.90;;;;;;5091553;28;20039;-68
2022/12/06 05:44:10;;;;;;;45.45;21.02;;;12.40;99.90;;;;;;5091405;28;20051;-68
2022/12/06 05:47:14;;;;;;;69.85;31.10;;;12.40;99.90;;;;;;5091490;28;20062;-69
2022/12/06 05:50:19;;;;;;;72.78;36.78;;;;;;;;;;5091412;28;20043;-68
2022/12/06 05:53:25;;;;;;;39.22;16.45;;;10.90;99.90;;;;;;5091585;28;20055;-68
2022/12/06 05:56:30;;;;;;;41.75;17.45;;;;;;;;;;5091461;28;20040;-68
2022/12/06 05:59:35;;;;;;;40.58;17.52;;;;;;;;;;5091483;28;20047;-69
2022/12/06 06:02:39;;;;;;;44.00;18.35;;;;;;;;;;5091128;28;20039;-68
2022/12/06 06:05:49;;;;;;;44.38;19.23;;;10.70;99.90;;;;;;5090280;28;20051;-69
2022/12/06 06:08:53;;;;;;;43.10;17.05;;;;;;;;;;5090848;28;20494;-68
2022/12/06 06:11:58;;;;;;;46.55;16.77;;;;;;;;;;5090906;28;20039;-68
2022/12/06 06:15:05;;;;;;;34.17;16.73;;;;;;;;;;5090865;28;20051;-69
2022/12/06 06:18:09;;;;;;;44.35;17.27;;;10.80;99.90;;;;;;5090823;28;20043;-69
2022/12/06 06:21:13;;;;;;;41.30;18.20;;;10.80;99.90;;;;;;5090894;28;20059;-69
2022/12/06 06:24:17;;;;;;;55.47;19.63;;;;;;;;;;5090733;28;20071;-69
2022/12/06 06:27:22;;;;;;;32.38;16.45;;;11.00;99.90;;;;;;5091136;28;20526;-69
2022/12/06 06:30:26;;;;;;;38.53;15.63;;;;;;;;;;5090856;28;20216;-67
2022/12/06 06:33:31;;;;;;;43.28;17.05;;;;;;;;;;5090963;28;20051;-67
2022/12/06 06:36:35;;;;;;;47.25;17.65;;;;;;;;;;5090930;28;20054;-67
2022/12/06 06:39:39;;;;;;;48.17;16.83;;;;;;;;;;5094777;28;20047;-67
2022/12/06 06:42:43;;;;;;;51.53;17.13;;;;;;;;;;5094756;28;20067;-67
2022/12/06 06:45:59;;;;;;;44.22;16.95;;;11.30;99.90;;;;;;5094688;28;20039;-68
2022/12/06 06:49:04;;;;;;;43.78;16.50;;;;;;;;;;5094254;28;20043;-68
2022/12/06 06:52:08;;;;;;;42.10;17.05;;;;;;;;;;5094298;28;20051;-68
2022/12/06 06:55:13;;;;;;;44.95;17.77;;;;;;;;;;5094632;28;20039;-65
2022/12/06 06:58:17;;;;;;;39.65;18.08;;;;;;;;;;5094556;28;20051;-65
2022/12/06 07:01:22;;;;;;;38.58;17.05;;;13.40;99.90;;;;;;5094743;28;20384;-66
2022/12/06 07:04:27;;;;;;;46.67;17.63;;;;;;;;;;5094358;28;20105;-65
2022/12/06 07:07:31;;;;;;;49.50;16.80;;;;;;;;;;5094318;28;20475;-65
2022/12/06 07:10:35;;;;;;;58.45;20.35;;;11.20;99.90;;;;;;5094048;28;20051;-66
2022/12/06 07:13:40;;;;;;;101.13;22.25;;;11.20;99.90;;;;;;5094268;28;20061;-66
2022/12/06 07:16:45;;;;;;;66.13;21.83;;;11.20;99.90;;;;;;5094062;28;20051;-66
2022/12/06 07:19:49;;;;;;;77.70;22.33;;;;;;;;;;5094188;28;20427;-59
2022/12/06 07:22:54;;;;;;;55.03;19.55;;;11.50;99.90;;;;;;5093339;28;20043;-68
2022/12/06 07:26:08;;;;;;;43.65;17.95;;;11.30;99.90;;;;;;5094136;28;20039;-69
2022/12/06 07:29:12;;;;;;;67.80;21.30;;;14.80;99.90;;;;;;5093058;28;20067;-69
2022/12/06 07:32:16;;;;;;;63.63;21.73;;;;;;;;;;5094048;28;20043;-69
2022/12/06 07:35:21;;;;;;;49.50;19.17;;;;;;;;;;5093874;28;20043;-68
2022/12/06 07:38:25;;;;;;;53.75;22.88;;;12.50;99.90;;;;;;5093806;28;20067;-69
2022/12/06 07:45:13;;;;;;;58.50;22.45;;;11.70;99.90;;;;;;5093089;28;20058;-69
2022/12/06 07:48:19;;;;;;;44.15;21.73;;;;;;;;;;5093611;28;20521;-70
2022/12/06 07:51:24;;;;;;;51.03;20.40;;;;;;;;;;5093318;28;20681;-70
2022/12/06 07:54:28;;;;;;;53.53;21.98;;;;;;;;;;5093438;28;20051;-68
2022/12/06 07:57:32;;;;;;;48.30;18.95;;;;;;;;;;5093429;28;20035;-69
2022/12/06 08:00:37;;;;;;;39.65;18.75;;;12.10;99.90;;;;;;5093243;28;20059;-68
2022/12/06 08:03:41;;;;;;;31.48;17.20;;;12.00;99.90;;;;;;5092178;28;20078;-68
2022/12/06 08:06:45;;;;;;;43.53;20.95;;;12.70;99.90;;;;;;5093424;28;20055;-68
2022/12/06 08:09:50;;;;;;;54.70;20.73;;;12.70;99.90;;;;;;5093273;28;20046;-68
2022/12/06 08:12:54;;;;;;;56.10;21.30;;;12.80;99.90;;;;;;5091219;28;20051;-73
2022/12/06 08:15:58;;;;;;;61.33;22.20;;;14.90;99.90;;;;;;5093232;28;20043;-69
2022/12/06 08:19:02;;;;;;;39.92;20.08;;;13.10;99.90;;;;;;5093111;28;20506;-70
2022/12/06 08:22:06;;;;;;;37.38;18.65;;;13.20;99.90;;;;;;5093017;28;20039;-74
2022/12/06 08:25:10;;;;;;;28.48;17.42;;;13.40;99.90;;;;;;5092809;28;20051;-71
2022/12/06 08:28:14;;;;;;;39.30;18.38;;;13.60;99.90;;;;;;5092358;28;20047;-68
2022/12/06 08:31:21;;;;;;;51.10;21.63;;;13.70;99.90;;;;;;5092691;28;20463;-68
2022/12/06 08:34:25;;;;;;;35.83;19.10;;;14.00;99.90;;;;;;5092420;28;20035;-69
2022/12/06 08:37:29;;;;;;;43.30;17.75;;;14.10;99.90;;;;;;5092471;28;20125;-67
2022/12/06 08:40:33;;;;;;;35.33;16.80;;;14.40;99.90;;;;;;5093100;28;20039;-66
2022/12/06 08:43:37;;;;;;;32.10;16.27;;;14.60;99.90;;;;;;5092580;28;20063;-69
2022/12/06 08:46:41;;;;;;;37.88;19.10;;;14.60;99.90;;;;;;5092532;28;20502;-68
2022/12/06 08:49:45;;;;;;;43.67;17.67;;;14.60;99.90;;;;;;5092097;28;20106;-68
2022/12/06 08:52:49;;;;;;;28.02;16.13;;;14.60;99.90;;;;;;5092027;28;20051;-69
2022/12/06 08:55:54;;;;;;;33.88;16.35;;;14.70;99.90;;;;;;5092198;28;20043;-67
2022/12/06 08:58:58;;;;;;;47.80;18.88;;;14.80;99.90;;;;;;5092125;28;20039;-69
2022/12/06 09:02:02;;;;;;;33.45;17.08;;;15.00;99.90;;;;;;5091916;28;20138;-68
2022/12/06 09:05:06;;;;;;;43.00;18.88;;;15.20;99.90;;;;;;5092077;28;20051;-68
2022/12/06 09:08:11;;;;;;;36.95;18.10;;;15.40;99.90;;;;;;5092054;28;20039;-68
2022/12/06 09:11:15;;;;;;;38.25;18.08;;;15.50;99.40;;;;;;5092136;28;20043;-69
2022/12/06 09:14:19;;;;;;;39.40;18.05;;;15.70;98.90;;;;;;5092234;28;20043;-70
2022/12/06 09:17:23;;;;;;;39.38;18.15;;;15.80;99.00;;;;;;5092098;28;20384;-69
2022/12/06 09:20:26;;;;;;;30.20;17.05;;;16.00;98.50;;;;;;5092142;28;20039;-69
2022/12/06 09:23:30;;;;;;;39.00;20.35;;;16.10;98.50;;;;;;5091713;28;20055;-69
2022/12/06 09:26:35;;;;;;;35.63;18.50;;;16.20;98.30;;;;;;5088502;28;20047;-68
2022/12/06 09:29:39;;;;;;;45.13;20.63;;;16.40;98.20;;;;;;5090835;28;20066;-68
2022/12/06 09:32:44;;;;;;;44.95;18.42;;;16.60;97.80;;;;;;5090553;28;20051;-68
2022/12/06 09:35:50;;;;;;;37.72;17.17;;;16.80;97.70;;;;;;5089570;28;20058;-68
2022/12/06 09:39:17;;;;;;;37.75;18.65;;;17.00;97.50;;;;;;5091643;28;20051;-68
2022/12/06 09:42:41;;;;;;;42.45;18.65;;;17.10;97.30;;;;;;5090620;28;20051;-68
2022/12/06 09:46:21;;;;;;;45.78;18.85;;;17.30;96.60;;;;;;5091175;28;20074;-68
2022/12/06 09:49:42;;;;;;;51.38;18.63;;;17.40;96.50;;;;;;5091313;28;20055;-68
2022/12/06 09:53:01;;;;;;;32.70;17.17;;;17.60;96.50;;;;;;5091123;28;20050;-70
2022/12/06 09:56:05;;;;;;;37.80;16.48;;;17.70;96.30;;;;;;5091253;28;20552;-69
2022/12/06 09:59:29;;;;;;;42.58;16.05;;;17.80;96.50;;;;;;5091133;28;20043;-67
2022/12/06 10:03:10;;;;;;;49.13;14.50;;;17.90;96.60;;;;;;5076002;28;20035;-68
2022/12/06 10:06:19;;;;;;;30.93;11.87;;;18.00;96.60;;;;;;5083414;28;20062;-68
2022/12/06 10:09:57;;;;;;;28.60;10.82;;;18.10;96.70;;;;;;5090925;28;20039;-68
2022/12/06 10:13:06;;;;;;;34.95;13.00;;;18.20;96.60;;;;;;5090248;28;20047;-68
2022/12/06 10:16:10;;;;;;;39.20;10.27;;;18.10;96.60;;;;;;5090836;28;20047;-68
2022/12/06 10:19:23;;;;;;;36.42;11.30;;;18.20;96.60;;;;;;5091013;28;20059;-68
2022/12/06 10:22:53;;;;;;;38.65;9.55;;;18.20;96.40;;;;;;5091131;28;20039;-69
2022/12/06 10:26:14;;;;;;;22.58;8.70;;;18.20;96.30;;;;;;5091203;28;20055;-69
2022/12/06 10:29:21;;;;;;;33.47;9.00;;;18.30;96.40;;;;;;5090788;28;20047;-69
2022/12/06 10:32:30;;;;;;;34.90;10.02;;;18.40;96.00;;;;;;5091100;28;20039;-68
2022/12/06 10:35:42;;;;;;;35.75;12.57;;;18.50;95.80;;;;;;5091244;28;20055;-68
2022/12/06 10:38:54;;;;;;;33.15;8.88;;;18.50;95.80;;;;;;5090823;28;20039;-69
2022/12/06 10:42:08;;;;;;;31.25;9.15;;;18.50;95.90;;;;;;5090722;28;20043;-68
2022/12/06 10:49:17;;;;;;;26.60;8.75;;;18.80;96.10;;;;;;5091238;28;20051;-70
2022/12/06 10:52:39;;;;;;;22.08;8.50;;;18.90;95.90;;;;;;5090634;28;20055;-69
2022/12/06 10:55:58;;;;;;;23.83;8.57;;;19.00;95.70;;;;;;5091019;28;20043;-68
2022/12/06 10:59:25;;;;;;;27.80;9.07;;;19.00;95.00;;;;;;5090665;28;20043;-68
2022/12/06 11:02:43;;;;;;;34.70;9.30;;;19.10;95.30;;;;;;5090723;28;20694;-69
2022/12/06 11:06:14;;;;;;;21.02;8.38;;;19.10;95.50;;;;;;5090683;28;20055;-68
2022/12/06 11:09:44;;;;;;;25.33;10.40;;;19.10;95.60;;;;;;5090718;28;20055;-68
2022/12/06 11:13:10;;;;;;;35.22;8.98;;;19.10;95.50;;;;;;5090454;28;20039;-69
2022/12/06 11:16:27;;;;;;;27.90;7.97;;;19.10;95.30;;;;;;5075360;28;20051;-68
2022/12/06 11:19:44;;;;;;;20.88;7.68;;;19.10;95.40;;;;;;5090192;28;20506;-69
2022/12/06 11:23:04;;;;;;;22.00;7.72;;;19.10;95.50;;;;;;5090651;28;20035;-68
2022/12/06 11:26:36;;;;;;;28.02;7.57;;;19.10;95.30;;;;;;5093864;28;20062;-68
2022/12/06 11:29:46;;;;;;;19.95;7.05;;;19.10;95.20;;;;;;5093283;28;20245;-68
2022/12/06 11:32:51;;;;;;;21.23;6.73;;;19.00;95.20;;;;;;5094149;28;20051;-68
2022/12/06 11:36:00;;;;;;;22.52;7.15;;;19.00;95.30;;;;;;5092872;28;20051;-67
2022/12/06 11:39:05;;;;;;;24.42;8.38;;;19.00;95.20;;;;;;5093245;28;20055;-67
2022/12/06 11:42:12;;;;;;;18.95;7.43;;;18.90;95.00;;;;;;5093645;28;20039;-67
2022/12/06 11:45:31;;;;;;;26.98;8.77;;;18.80;95.10;;;;;;5093698;28;20502;-70
2022/12/06 11:48:35;;;;;;;25.80;8.45;;;18.80;95.60;;;;;;5092906;28;20499;-71
2022/12/06 11:51:39;;;;;;;24.73;8.23;;;18.70;95.50;;;;;;5093541;28;20055;-68
2022/12/06 11:54:57;;;;;;;37.15;9.20;;;18.70;95.50;;;;;;5093741;28;20088;-68
2022/12/06 11:58:07;;;;;;;38.28;9.45;;;18.70;95.20;;;;;;5093651;28;20498;-69
2022/12/06 12:01:14;;;;;;;34.25;8.02;;;18.60;95.20;;;;;;5093620;28;20059;-71
2022/12/06 12:04:34;;;;;;;16.83;6.55;;;18.50;95.00;;;;;;5093452;28;20050;-67
2022/12/06 12:07:40;;;;;;;16.38;5.57;;;18.40;95.10;;;;;;5092296;28;20523;-67
2022/12/06 12:10:56;;;;;;;17.45;5.15;;;18.50;95.20;;;;;;5092926;28;20043;-67
2022/12/06 12:14:17;;;;;;;24.67;5.50;;;18.50;94.80;;;;;;5092375;28;20065;-67
2022/12/06 12:17:28;;;;;;;13.02;4.63;;;18.50;94.40;;;;;;5091618;28;20039;-67
2022/12/06 12:20:38;;;;;;;16.45;4.88;;;18.50;94.40;;;;;;5092848;28;20043;-67
2022/12/06 12:23:46;;;;;;;13.45;5.28;;;18.40;94.50;;;;;;5092771;28;20490;-67
2022/12/06 12:26:50;;;;;;;14.90;4.93;;;18.50;94.80;;;;;;5092981;28;20051;-67
2022/12/06 12:30:16;;;;;;;18.58;6.30;;;18.40;94.90;;;;;;5093064;28;20039;-67
2022/12/06 12:33:22;;;;;;;19.35;5.63;;;18.40;94.90;;;;;;5092814;28;20043;-68
2022/12/06 12:36:28;;;;;;;16.17;4.78;;;18.40;95.00;;;;;;5092164;28;20067;-68
2022/12/06 12:39:38;;;;;;;22.35;5.43;;;18.40;95.10;;;;;;5092611;28;20039;-68
2022/12/06 12:42:42;;;;;;;21.75;4.97;;;18.30;94.90;;;;;;5092839;28;20032;-68
2022/12/06 12:46:13;;;;;;;16.20;4.72;;;18.30;94.60;;;;;;5093007;28;20184;-68
2022/12/06 12:49:27;;;;;;;12.57;3.92;;;18.30;94.70;;;;;;5092354;28;20043;-69
2022/12/06 12:52:37;;;;;;;12.30;4.10;;;18.30;94.80;;;;;;5092121;28;20055;-68
2022/12/06 12:55:42;;;;;;;11.63;3.75;;;18.20;94.80;;;;;;5092592;28;20055;-68
2022/12/06 12:58:47;;;;;;;14.00;3.90;;;18.20;94.70;;;;;;5091852;28;20436;-68
2022/12/06 13:02:10;;;;;;;18.50;4.38;;;18.20;94.80;;;;;;5092524;28;20364;-68
2022/12/06 13:05:16;;;;;;;12.45;4.18;;;18.20;94.70;;;;;;5091913;28;20055;-68
2022/12/06 13:08:30;;;;;;;20.08;5.13;;;18.10;94.70;;;;;;5092101;28;20035;-69
2022/12/06 13:11:41;;;;;;;18.42;4.63;;;18.10;94.60;;;;;;5092235;28;20059;-69
2022/12/06 13:14:54;;;;;;;16.25;3.78;;;18.00;94.60;;;;;;5092282;28;20051;-68
2022/12/06 13:18:05;;;;;;;10.50;3.47;;;18.00;94.70;;;;;;5091694;28;20043;-68
2022/12/06 13:21:21;;;;;;;16.77;4.35;;;18.00;94.80;;;;;;5092145;28;20043;-69
2022/12/06 13:24:29;;;;;;;23.05;4.70;;;18.00;94.70;;;;;;5091795;28;20051;-69
2022/12/06 13:27:39;;;;;;;14.85;4.47;;;18.00;94.50;;;;;;5091833;28;20047;-68
2022/12/06 13:30:44;;;;;;;12.15;4.20;;;18.00;94.30;;;;;;5091717;28;20075;-68
2022/12/06 13:34:04;;;;;;;9.60;3.70;;;18.00;94.20;;;;;;5091600;28;20043;-68
2022/12/06 13:37:27;;;;;;;22.20;4.43;;;18.00;94.20;;;;;;5091493;28;20051;-68
2022/12/06 13:40:31;;;;;;;23.85;5.20;;;17.90;93.90;;;;;;5091313;28;20046;-68
2022/12/06 13:43:35;;;;;;;16.33;3.88;;;17.90;93.70;;;;;;5091651;28;20399;-68
2022/12/06 13:46:40;;;;;;;24.85;4.47;;;17.90;93.70;;;;;;5091677;28;20047;-68
2022/12/06 13:49:44;;;;;;;16.85;4.13;;;17.80;93.70;;;;;;5091477;28;20043;-68
2022/12/06 13:52:48;;;;;;;14.52;4.72;;;17.80;93.80;;;;;;5091077;28;20055;-68
2022/12/06 13:55:59;;;;;;;10.27;4.03;;;17.80;94.00;;;;;;5091309;28;20486;-69
2022/12/06 13:59:14;;;;;;;11.85;4.82;;;17.80;94.20;;;;;;5091282;28;20043;-68
2022/12/06 14:03:04;;;;;;;27.27;6.13;;;17.80;94.40;;;;;;5091249;28;20039;-75
2022/12/06 14:06:09;;;;;;;30.70;7.18;;;17.90;95.40;;;;;;5090102;28;20059;-68
2022/12/06 14:09:14;;;;;;;26.05;5.90;;;17.80;95.20;;;;;;5090945;28;20039;-68
2022/12/06 14:12:27;;;;;;;27.92;6.28;;;17.90;95.00;;;;;;5090248;28;20039;-70
2022/12/06 14:15:31;;;;;;;19.15;4.78;;;17.80;95.30;;;;;;5091003;28;20043;-69
2022/12/06 14:18:40;;;;;;;15.48;4.88;;;17.80;95.30;;;;;;5091166;28;20391;-68
2022/12/06 14:21:55;;;;;;;19.08;5.97;;;17.80;95.50;;;;;;5091043;28;20506;-69
2022/12/06 14:25:04;;;;;;;17.38;5.22;;;17.70;95.60;;;;;;5090923;28;20047;-70
2022/12/06 14:28:12;;;;;;;14.52;5.13;;;17.70;95.70;;;;;;5090783;28;20039;-72
2022/12/06 14:31:33;;;;;;;21.63;5.43;;;17.60;95.80;;;;;;5090712;28;20577;-66
2022/12/06 14:34:38;;;;;;;10.32;5.07;;;17.60;96.00;;;;;;5090947;28;20035;-67
2022/12/06 14:37:50;;;;;;;15.38;6.40;;;17.60;96.10;;;;;;5090727;28;20798;-63
2022/12/06 14:44:18;;;;;;;17.67;6.40;;;17.60;96.20;;;;;;5090413;28;20051;-66
2022/12/06 14:47:22;;;;;;;16.77;6.32;;;17.50;96.20;;;;;;5090671;28;20043;-65
2022/12/06 14:50:47;;;;;;;22.50;6.78;;;17.50;96.30;;;;;;5091166;28;20106;-65
2022/12/06 14:53:52;;;;;;;21.77;6.43;;;17.50;96.30;;;;;;5090739;28;20086;-63
2022/12/06 14:56:56;;;;;;;19.33;7.68;;;17.50;96.30;;;;;;5090205;28;20202;-65
2022/12/06 15:00:12;;;;;;;21.95;7.78;;;17.40;96.40;;;;;;5093275;28;20039;-65
2022/12/06 15:03:16;;;;;;;21.73;7.00;;;17.40;96.50;;;;;;5093990;28;20239;-65
2022/12/06 15:06:22;;;;;;;21.17;7.30;;;17.40;96.60;;;;;;5094294;28;20059;-64
2022/12/06 15:09:29;;;;;;;23.00;9.32;;;17.40;96.70;;;;;;5094218;28;20424;-66
2022/12/06 15:12:54;;;;;;;29.05;9.73;;;17.40;96.80;;;;;;5094182;28;20307;-67
2022/12/06 15:16:08;;;;;;;31.67;10.05;;;17.30;96.80;;;;;;5093956;28;20052;-66
2022/12/06 15:19:14;;;;;;;42.13;11.82;;;17.30;96.90;;;;;;5094467;28;20043;-66
2022/12/06 15:22:21;;;;;;;36.45;12.45;;;17.30;97.20;;;;;;5094134;28;20487;-66
2022/12/06 15:25:25;;;;;;;32.13;11.55;;;17.20;97.40;;;;;;5093815;28;20490;-66
2022/12/06 15:28:30;;;;;;;43.13;11.90;;;17.20;97.50;;;;;;5093609;28;20055;-66
2022/12/06 15:31:35;;;;;;;42.72;12.27;;;17.10;97.70;;;;;;5093705;28;20047;-67
2022/12/06 15:34:40;;;;;;;45.03;14.75;;;17.00;97.80;;;;;;5093716;28;20055;-65
2022/12/06 15:37:44;;;;;;;49.10;15.32;;;17.00;98.10;;;;;;5093696;28;20058;-65
2022/12/06 15:40:50;;;;;;;69.97;16.38;;;16.90;98.30;;;;;;5093519;28;20058;-66
2022/12/06 15:43:56;;;;;;;48.70;15.60;;;16.80;98.50;;;;;;5093235;28;20520;-65
2022/12/06 15:47:00;;;;;;;53.90;15.00;;;16.80;98.70;;;;;;5093217;28;20051;-66
2022/12/06 15:50:05;;;;;;;52.65;15.75;;;16.70;98.80;;;;;;5093765;28;20043;-65
2022/12/06 15:53:14;;;;;;;44.97;15.25;;;16.70;98.90;;;;;;5093883;28;20043;-66
2022/12/06 15:56:21;;;;;;;53.88;17.17;;;16.60;99.00;;;;;;5093070;28;20062;-65
2022/12/06 15:59:26;;;;;;;57.83;16.75;;;16.60;99.20;;;;;;5093415;28;20269;-65
2022/12/06 16:02:30;;;;;;;53.95;17.27;;;16.50;99.40;;;;;;5093335;28;20051;-68
2022/12/06 16:05:34;;;;;;;71.97;18.25;;;16.50;99.60;;;;;;5093176;28;20096;-67
2022/12/06 16:08:39;;;;;;;65.53;19.00;;;16.40;99.70;;;;;;5093081;28;20399;-69
2022/12/06 16:11:43;;;;;;;78.45;20.42;;;16.40;99.80;;;;;;5092289;28;20070;-65
2022/12/06 16:14:48;;;;;;;90.65;18.73;;;16.30;99.90;;;;;;5092967;28;20381;-66
2022/12/06 16:17:52;;;;;;;60.35;17.73;;;16.30;99.90;;;;;;5092795;28;20503;-67
2022/12/06 16:20:57;;;;;;;52.80;16.83;;;16.20;99.90;;;;;;5092426;28;20186;-67
2022/12/06 16:24:03;;;;;;;89.72;20.63;;;16.10;99.90;;;;;;5092713;28;20396;-65
2022/12/06 16:27:07;;;;;;;93.35;21.15;;;16.10;99.90;;;;;;5092847;28;20063;-65
2022/12/06 16:30:12;;;;;;;86.22;22.05;;;16.10;99.90;;;;;;5092555;28;20043;-65
2022/12/06 16:33:18;;;;;;;87.75;24.20;;;16.10;99.90;;;;;;5092843;28;20511;-65
2022/12/06 16:36:23;;;;;;;84.03;24.92;;;16.10;99.90;;;;;;5092671;28;20055;-65
2022/12/06 16:39:30;;;;;;;77.05;25.23;;;16.00;99.90;;;;;;5092710;28;20558;-65
2022/12/06 16:42:34;;;;;;;70.80;26.02;;;16.00;99.90;;;;;;5092420;28;20043;-64
2022/12/06 16:45:40;;;;;;;93.15;26.30;;;16.00;99.90;;;;;;5092415;28;20051;-66
2022/12/06 16:48:44;;;;;;;63.97;22.25;;;16.00;99.90;;;;;;5092238;28;20039;-65
2022/12/06 16:51:49;;;;;;;55.95;19.75;;;16.00;99.90;;;;;;5092217;28;20055;-64
2022/12/06 16:54:53;;;;;;;66.70;19.73;;;15.90;99.90;;;;;;5092640;28;20051;-65
2022/12/06 16:57:57;;;;;;;91.43;23.02;;;15.90;99.90;;;;;;5091946;28;20387;-65
2022/12/06 17:01:03;;;;;;;95.03;25.88;;;15.80;99.90;;;;;;5091756;28;20395;-65
2022/12/06 17:04:09;;;;;;;80.68;25.15;;;15.70;99.90;;;;;;5091910;28;20055;-64